CheckWX is a tool to help pilots better visualize weather data.  It is not intended as a substitute for an official pre-flight weather briefing.

11:59:35 UTC

CWFD METAR
Cape Dyer Airport
Canada
Current

15 mins ago

CWFD 251145Z AUTO 36030G39KT ////SM //// SCT003 SCT006 BKN025 M22/M24 A2881
Observed
Mar-25 @ 11:45 UTC
Wind
  • 360° at 30 KTS
  • Gusting to 39 KTS
Visibility
Cloud Levels
  • Scattered at 300' AGL
  • Scattered at 600' AGL
  • Broken at 2,500' AGL
Temperature
-22°C / -8°F
Dewpoint
-24°C / -11°F
Humidity
84%
Altimeter
28.81" Hg
Pressure
975.62 hPa
Previous

60 mins ago

CWFD 251100Z AUTO 36026G40KT ////SM //// BKN003 BKN023 OVC045 M22/M24 A2880
Observed
Mar-25 @ 11:00 UTC
Wind
  • 360° at 26 KTS
  • Gusting to 40 KTS
Visibility
Cloud Levels
  • Broken at 300' AGL
  • Broken at 2,300' AGL
  • Overcast at 4,500' AGL
Temperature
-22°C / -8°F
Dewpoint
-24°C / -11°F
Humidity
84%
Altimeter
28.8" Hg
Pressure
975.32 hPa
Previous

2 hours ago

CWFD 251000Z AUTO 36028G40KT ////SM //// BKN003 BKN019 OVC049 M22/M25 A2881
Observed
Mar-25 @ 10:00 UTC
Wind
  • 360° at 28 KTS
  • Gusting to 40 KTS
Visibility
Cloud Levels
  • Broken at 300' AGL
  • Broken at 1,900' AGL
  • Overcast at 4,900' AGL
Temperature
-22°C / -8°F
Dewpoint
-25°C / -13°F
Humidity
77%
Altimeter
28.81" Hg
Pressure
975.62 hPa